Time;durP1;ratioP1;P1;durP2;ratioP2;P2;SDS_P1;SDS_P2;PMS_P1;PMS_P2;Temp;Humidity;BMP_temperature;BMP_pressure;BME280_temperature;BME280_humidity;BME280_pressure;Samples;Min_cycle;Max_cycle;Signal;HPM_P1;HPM_P2
2021/12/24 00:00:14;;;;;;;4.30;3.50;;;;;;;;;;5052768;28;20445;-71
2021/12/24 00:02:41;;;;;;;10.30;4.37;;;;;;;;;;5052497;28;20449;-71
2021/12/24 00:05:08;;;;;;;13.17;5.27;;;;;;;;;;5052221;28;20476;-71
2021/12/24 00:07:36;;;;;;;5.07;2.90;;;;;;;;;;5052543;28;20463;-71
2021/12/24 00:10:04;;;;;;;3.07;2.50;;;;;;;;;;5052565;28;20456;-71
2021/12/24 00:12:35;;;;;;;5.53;3.20;;;;;;;;;;5052420;28;20497;-71
2021/12/24 00:15:13;;;;;;;3.97;3.00;;;;;;;;;;5052288;28;20476;-71
2021/12/24 00:17:40;;;;;;;4.20;2.50;;;;;;;;;;5052409;28;20460;-71
2021/12/24 00:20:28;;;;;;;4.37;2.83;;;;;;;;;;5052474;28;20449;-71
2021/12/24 00:35:04;;;;;;;4.10;2.60;;;;;;;;;;5052477;28;20457;-71
2021/12/24 00:37:08;;;;;;;2.80;2.10;;;;;;;;;;5053818;28;20531;-71
2021/12/24 00:39:41;;;;;;;7.60;2.23;;;;;;;;;;5055842;28;20456;-71
2021/12/24 00:42:09;;;;;;;7.90;2.10;;;;;;;;;;5056016;28;20449;-71
2021/12/24 00:44:37;;;;;;;4.03;2.60;;;;;;;;;;5055387;28;20468;-71
2021/12/24 00:47:05;;;;;;;3.50;2.50;;;;;;;;;;5055690;28;20457;-71
2021/12/24 00:49:32;;;;;;;2.40;2.10;;;;;;;;;;5055601;28;20464;-71
2021/12/24 00:52:07;;;;;;;2.87;2.27;;;;;;;;;;5055798;28;20445;-71
2021/12/24 00:57:19;;;;;;;2.67;2.10;;;;;;;;;;5055579;28;20424;-71
2021/12/24 00:59:48;;;;;;;4.70;2.43;;;;;;;;;;5055596;28;20462;-71
2021/12/24 01:02:15;;;;;;;4.33;2.40;;;;;;;;;;5055509;28;20461;-71
2021/12/24 01:04:42;;;;;;;2.40;1.80;;;;;;;;;;5055259;28;20836;-71
2021/12/24 01:07:10;;;;;;;8.23;5.00;;;;;;;;;;5055607;28;20456;-71
2021/12/24 01:09:37;;;;;;;2.57;1.93;;;;;;;;;;5055266;28;20517;-71
2021/12/24 01:12:05;;;;;;;2.67;1.70;;;;;;;;;;5055319;28;20479;-71
2021/12/24 01:14:32;;;;;;;3.33;1.83;;;;;;;;;;5054986;28;21028;-71
2021/12/24 01:17:15;;;;;;;4.03;2.40;;;;;;;;;;5055257;28;20449;-71
2021/12/24 01:19:45;;;;;;;3.20;2.33;;;;;;;;;;5055174;28;20453;-71
2021/12/24 01:22:57;;;;;;;3.60;2.70;;;;;;;;;;5055127;28;20507;-71
2021/12/24 01:25:27;;;;;;;2.13;1.93;;;;;;;;;;5054057;28;20500;-71
2021/12/24 01:28:15;;;;;;;2.70;2.00;;;;;;;;;;5055120;28;20449;-71
2021/12/24 01:39:12;;;;;;;2.87;2.57;;;;;;;;;;5054950;28;20539;-71
2021/12/24 01:44:27;;;;;;;4.83;2.60;;;;;;;;;;5054637;28;20451;-71
2021/12/24 01:46:55;;;;;;;6.37;2.53;;;;;;;;;;5054722;28;20518;-71
2021/12/24 01:49:23;;;;;;;5.20;2.53;;;;;;;;;;5054618;28;20460;-71
2021/12/24 01:51:50;;;;;;;8.40;2.23;;;;;;;;;;5054658;28;20466;-71
2021/12/24 01:54:18;;;;;;;2.83;2.53;;;;;;;;;;5054264;28;20492;-71
2021/12/24 01:56:45;;;;;;;3.47;1.93;;;;;;;;;;5054481;28;20445;-72
2021/12/24 01:59:13;;;;;;;3.53;2.43;;;;;;;;;;5054338;28;20461;-71
2021/12/24 02:01:40;;;;;;;4.00;2.40;;;;;;;;;;5054410;28;20452;-71
2021/12/24 02:04:11;;;;;;;4.70;2.10;;;;;;;;;;5053998;28;20451;-71
2021/12/24 02:06:40;;;;;;;3.13;2.43;;;;;;;;;;5054355;28;20499;-71
2021/12/24 02:09:07;;;;;;;6.50;2.50;;;;;;;;;;5054229;28;20445;-71
2021/12/24 02:11:37;;;;;;;3.60;2.37;;;;;;;;;;5054047;28;20463;-71
2021/12/24 02:14:05;;;;;;;4.73;2.13;;;;;;;;;;5053852;28;20485;-71
2021/12/24 02:16:50;;;;;;;6.47;2.50;;;;;;;;;;5053944;28;20459;-71
2021/12/24 02:30:31;;;;;;;3.20;2.03;;;;;;;;;;5053948;28;20443;-71
2021/12/24 02:32:58;;;;;;;2.93;2.30;;;;;;;;;;5053654;28;20453;-71
2021/12/24 02:35:25;;;;;;;2.60;2.00;;;;;;;;;;5053276;28;20499;-71
2021/12/24 02:37:55;;;;;;;5.93;2.23;;;;;;;;;;5053585;28;20453;-71
2021/12/24 02:40:22;;;;;;;6.33;2.50;;;;;;;;;;5053551;28;20956;-71
2021/12/24 02:42:53;;;;;;;3.03;2.27;;;;;;;;;;5053334;28;20449;-71
2021/12/24 02:45:20;;;;;;;4.67;2.57;;;;;;;;;;5053104;28;20487;-71
2021/12/24 02:48:10;;;;;;;2.40;2.00;;;;;;;;;;5053519;28;20463;-71
2021/12/24 02:56:13;;;;;;;3.10;2.30;;;;;;;;;;5053423;28;20468;-71
2021/12/24 02:58:41;;;;;;;4.37;2.13;;;;;;;;;;5053307;28;20896;-71
2021/12/24 03:01:09;;;;;;;3.17;2.23;;;;;;;;;;5053139;28;20817;-71
2021/12/24 03:03:36;;;;;;;4.73;2.53;;;;;;;;;;5053165;28;20480;-71
2021/12/24 03:06:03;;;;;;;4.90;2.30;;;;;;;;;;5053279;28;20479;-71
2021/12/24 03:08:32;;;;;;;5.47;2.03;;;;;;;;;;5053107;28;20463;-71
2021/12/24 03:10:59;;;;;;;13.03;2.43;;;;;;;;;;5053196;28;20471;-71
2021/12/24 03:13:27;;;;;;;3.50;2.50;;;;;;;;;;5052935;28;20481;-72
2021/12/24 03:15:55;;;;;;;2.83;2.00;;;;;;;;;;5052967;28;20465;-71
2021/12/24 03:18:26;;;;;;;3.23;2.40;;;;;;;;;;5053077;28;20459;-71
2021/12/24 03:21:00;;;;;;;4.97;2.63;;;;;;;;;;5053163;28;20449;-71
2021/12/24 03:23:40;;;;;;;3.10;2.30;;;;;;;;;;5052802;28;20506;-72
2021/12/24 03:26:10;;;;;;;5.53;2.40;;;;;;;;;;5052489;28;20522;-71
2021/12/24 03:28:37;;;;;;;3.10;2.20;;;;;;;;;;5052883;28;20471;-71
2021/12/24 03:31:05;;;;;;;2.50;1.80;;;;;;;;;;5052893;28;20946;-72
2021/12/24 03:33:33;;;;;;;4.17;1.93;;;;;;;;;;5052275;28;20496;-72
2021/12/24 03:36:01;;;;;;;8.67;2.47;;;;;;;;;;5052738;28;20480;-71
2021/12/24 03:38:28;;;;;;;6.27;2.33;;;;;;;;;;5052876;28;20980;-71
2021/12/24 03:40:55;;;;;;;2.53;2.03;;;;;;;;;;5052865;28;20456;-71
2021/12/24 03:43:23;;;;;;;2.23;1.67;;;;;;;;;;5052780;28;20910;-72
2021/12/24 03:45:59;;;;;;;2.30;1.80;;;;;;;;;;5052498;28;20480;-71
2021/12/24 03:48:39;;;;;;;6.83;1.73;;;;;;;;;;5052554;28;20496;-71
2021/12/24 03:51:23;;;;;;;2.50;1.80;;;;;;;;;;5052853;28;20456;-71
2021/12/24 03:56:36;;;;;;;2.50;1.90;;;;;;;;;;5052765;28;20440;-71
2021/12/24 03:59:05;;;;;;;2.10;1.50;;;;;;;;;;5052727;28;20793;-71
2021/12/24 04:01:32;;;;;;;4.20;2.47;;;;;;;;;;5052478;28;21009;-71
2021/12/24 04:04:00;;;;;;;2.57;1.90;;;;;;;;;;5052265;28;20455;-71
2021/12/24 04:06:27;;;;;;;8.03;2.00;;;;;;;;;;5052463;28;20968;-71
2021/12/24 04:08:54;;;;;;;3.00;1.97;;;;;;;;;;5052411;28;20755;-71
2021/12/24 04:11:21;;;;;;;1.90;1.60;;;;;;;;;;5053008;28;20463;-71
2021/12/24 04:13:48;;;;;;;3.80;2.03;;;;;;;;;;5056160;28;20503;-71
2021/12/24 04:16:17;;;;;;;2.40;1.70;;;;;;;;;;5056409;28;20474;-71
2021/12/24 04:18:51;;;;;;;2.47;1.77;;;;;;;;;;5056345;28;20482;-71
2021/12/24 04:26:59;;;;;;;2.60;2.00;;;;;;;;;;5051211;28;20455;-71
2021/12/24 04:29:27;;;;;;;1.90;1.60;;;;;;;;;;5055901;28;20808;-71
2021/12/24 04:32:08;;;;;;;2.30;1.90;;;;;;;;;;5056117;28;20449;-71
2021/12/24 04:34:38;;;;;;;3.57;1.97;;;;;;;;;;5055569;28;20499;-71
2021/12/24 04:37:43;;;;;;;6.30;2.10;;;;;;;;;;5056109;28;20453;-71
2021/12/24 04:51:12;;;;;;;2.57;1.40;;;;;;;;;;5017294;28;20450;-71
2021/12/24 05:02:08;;;;;;;2.20;2.00;;;;;;;;;;5055734;28;20945;-71
2021/12/24 05:04:46;;;;;;;3.50;1.83;;;;;;;;;;5055289;28;20551;-71
2021/12/24 05:07:29;;;;;;;2.87;1.73;;;;;;;;;;5055449;28;20829;-71
2021/12/24 05:09:57;;;;;;;3.47;1.90;;;;;;;;;;5055586;28;20462;-71
2021/12/24 05:12:24;;;;;;;3.77;1.80;;;;;;;;;;5055322;28;20464;-71
2021/12/24 05:14:51;;;;;;;5.20;2.07;;;;;;;;;;5055037;28;20499;-71
2021/12/24 05:17:26;;;;;;;2.53;2.00;;;;;;;;;;5055371;28;20794;-71
2021/12/24 05:22:39;;;;;;;3.67;1.97;;;;;;;;;;5054810;28;20428;-71
2021/12/24 05:25:06;;;;;;;3.47;2.10;;;;;;;;;;5054372;28;20483;-71
2021/12/24 05:27:35;;;;;;;3.80;2.20;;;;;;;;;;5054985;28;20452;-71
2021/12/24 05:30:02;;;;;;;2.47;1.90;;;;;;;;;;5054728;28;20467;-71
2021/12/24 05:32:30;;;;;;;4.47;2.00;;;;;;;;;;5054815;28;20460;-71
2021/12/24 05:34:58;;;;;;;2.80;2.00;;;;;;;;;;5054407;28;21001;-71
2021/12/24 05:37:25;;;;;;;6.53;2.03;;;;;;;;;;5054887;28;20469;-71
2021/12/24 05:39:52;;;;;;;2.07;1.57;;;;;;;;;;5055127;28;20960;-71
2021/12/24 05:42:22;;;;;;;3.77;2.60;;;;;;;;;;5054842;28;20445;-71
2021/12/24 05:44:49;;;;;;;2.37;1.87;;;;;;;;;;5054756;28;20554;-71
2021/12/24 05:47:16;;;;;;;2.37;2.10;;;;;;;;;;5054616;28;20805;-71
2021/12/24 05:49:44;;;;;;;4.20;3.03;;;;;;;;;;5054744;28;20961;-71
2021/12/24 05:52:12;;;;;;;2.70;2.10;;;;;;;;;;5054706;28;20451;-71
2021/12/24 05:54:39;;;;;;;2.50;1.60;;;;;;;;;;5054167;28;20493;-71
2021/12/24 05:57:07;;;;;;;3.77;2.23;;;;;;;;;;5054472;28;20480;-71
2021/12/24 05:59:34;;;;;;;4.10;1.70;;;;;;;;;;5054669;28;20828;-71
2021/12/24 06:02:01;;;;;;;3.80;2.63;;;;;;;;;;5054563;28;20448;-71
2021/12/24 06:04:28;;;;;;;3.20;2.30;;;;;;;;;;5054080;28;20468;-71
2021/12/24 06:06:56;;;;;;;7.80;3.13;;;;;;;;;;5054412;28;20819;-71
2021/12/24 06:09:24;;;;;;;3.47;2.20;;;;;;;;;;5054278;28;20798;-71
2021/12/24 06:11:51;;;;;;;4.03;1.90;;;;;;;;;;5054120;28;20461;-71
2021/12/24 06:14:18;;;;;;;3.93;1.83;;;;;;;;;;5053618;28;20492;-71
2021/12/24 06:16:50;;;;;;;3.37;2.20;;;;;;;;;;5054170;28;20812;-71
2021/12/24 06:19:18;;;;;;;7.23;2.43;;;;;;;;;;5053949;28;20449;-72
2021/12/24 06:21:45;;;;;;;2.83;2.03;;;;;;;;;;5053970;28;20460;-71
2021/12/24 06:24:13;;;;;;;5.67;2.23;;;;;;;;;;5053731;28;20472;-72
2021/12/24 06:26:41;;;;;;;2.80;1.90;;;;;;;;;;5053638;28;20551;-71
2021/12/24 06:29:09;;;;;;;2.70;1.70;;;;;;;;;;5053667;28;20468;-71
2021/12/24 06:31:36;;;;;;;3.33;1.60;;;;;;;;;;5053783;28;20828;-71
2021/12/24 06:34:03;;;;;;;1.83;1.43;;;;;;;;;;5052782;28;20457;-71
2021/12/24 06:36:31;;;;;;;7.33;2.57;;;;;;;;;;5053436;28;20456;-71
2021/12/24 06:38:58;;;;;;;3.73;2.70;;;;;;;;;;5053873;28;20946;-71
2021/12/24 06:41:25;;;;;;;2.30;1.50;;;;;;;;;;5053438;28;20467;-71
2021/12/24 06:43:54;;;;;;;5.20;1.50;;;;;;;;;;5053281;28;20460;-72
2021/12/24 06:46:21;;;;;;;2.43;1.97;;;;;;;;;;5053396;28;20453;-71
2021/12/24 06:48:53;;;;;;;2.27;1.80;;;;;;;;;;5053628;28;20460;-71
2021/12/24 06:51:20;;;;;;;3.97;1.90;;;;;;;;;;5053488;28;20452;-72
2021/12/24 06:53:48;;;;;;;1.60;1.40;;;;;;;;;;5053191;28;20833;-71
2021/12/24 06:56:15;;;;;;;1.93;1.20;;;;;;;;;;5053300;28;20495;-71
2021/12/24 06:58:42;;;;;;;1.70;1.33;;;;;;;;;;5053498;28;20453;-71
2021/12/24 07:01:10;;;;;;;3.50;2.03;;;;;;;;;;5053478;28;20826;-71
2021/12/24 07:03:38;;;;;;;2.23;2.03;;;;;;;;;;5053015;28;20448;-72
2021/12/24 07:06:05;;;;;;;2.43;1.57;;;;;;;;;;5053107;28;20477;-71
2021/12/24 07:08:33;;;;;;;6.90;2.90;;;;;;;;;;5053117;28;20464;-71
2021/12/24 07:11:00;;;;;;;8.37;3.90;;;;;;;;;;5053373;28;20460;-71
2021/12/24 07:13:28;;;;;;;3.00;1.80;;;;;;;;;;5052959;28;20934;-72
2021/12/24 07:15:55;;;;;;;1.90;1.70;;;;;;;;;;5053065;28;20500;-71
2021/12/24 07:18:23;;;;;;;2.93;1.93;;;;;;;;;;5053011;28;20484;-71
2021/12/24 07:20:50;;;;;;;7.63;2.20;;;;;;;;;;5053194;28;20918;-71
2021/12/24 07:23:18;;;;;;;1.90;1.30;;;;;;;;;;5053165;28;20546;-71
2021/12/24 07:25:45;;;;;;;3.93;1.70;;;;;;;;;;5052426;28;20464;-71
2021/12/24 07:28:13;;;;;;;2.90;2.10;;;;;;;;;;5052964;28;20820;-71
2021/12/24 07:30:40;;;;;;;2.57;1.80;;;;;;;;;;5053106;28;20453;-75
2021/12/24 07:33:07;;;;;;;4.10;2.77;;;;;;;;;;5052651;28;20456;-71
2021/12/24 07:35:35;;;;;;;2.00;1.73;;;;;;;;;;5052356;28;20496;-72
2021/12/24 07:38:02;;;;;;;2.87;2.00;;;;;;;;;;5052971;28;20449;-71
2021/12/24 07:40:29;;;;;;;4.83;2.00;;;;;;;;;;5052763;28;20456;-71
2021/12/24 07:42:57;;;;;;;4.60;2.10;;;;;;;;;;5052987;28;20460;-71
2021/12/24 07:45:24;;;;;;;5.73;2.20;;;;;;;;;;5052905;28;20467;-71
2021/12/24 07:48:06;;;;;;;3.80;2.87;;;;;;;;;;5056922;28;20976;-72
2021/12/24 07:53:19;;;;;;;2.73;2.00;;;;;;;;;;5057027;28;20424;-71
2021/12/24 07:55:46;;;;;;;3.07;2.77;;;;;;;;;;5066590;28;20495;-71
2021/12/24 07:58:15;;;;;;;4.27;3.10;;;;;;;;;;5076690;28;20832;-71
2021/12/24 08:00:43;;;;;;;5.83;3.60;;;;;;;;;;5076663;28;20460;-72
2021/12/24 08:03:10;;;;;;;4.83;2.93;;;;;;;;;;5076498;28;20795;-72
2021/12/24 08:05:39;;;;;;;4.90;3.50;;;;;;;;;;5076191;28;20847;-72
2021/12/24 08:08:08;;;;;;;5.47;3.80;;;;;;;;;;5076533;28;20868;-72
2021/12/24 08:10:37;;;;;;;4.57;3.50;;;;;;;;;;5076266;28;20459;-72
2021/12/24 08:13:05;;;;;;;6.00;4.07;;;;;;;;;;5076232;28;20826;-72
2021/12/24 08:15:32;;;;;;;4.20;3.50;;;;;;;;;;5076098;28;20988;-72
2021/12/24 08:17:59;;;;;;;5.90;4.43;;;;;;;;;;5076210;28;20451;-71
2021/12/24 08:20:27;;;;;;;16.17;9.37;;;;;;;;;;5076371;28;20452;-71
2021/12/24 08:22:54;;;;;;;5.80;3.87;;;;;;;;;;5076309;28;20558;-72
2021/12/24 08:25:22;;;;;;;7.03;3.40;;;;;;;;;;5075637;28;20521;-71
2021/12/24 08:27:51;;;;;;;3.67;2.97;;;;;;;;;;5076325;28;20456;-72
2021/12/24 08:30:18;;;;;;;3.43;2.20;;;;;;;;;;5076005;28;20464;-72
2021/12/24 08:32:45;;;;;;;3.43;2.40;;;;;;;;;;5076080;28;20451;-71
2021/12/24 08:35:13;;;;;;;2.93;2.23;;;;;;;;;;5075814;28;20487;-71
2021/12/24 08:37:40;;;;;;;7.07;2.27;;;;;;;;;;5075975;28;20459;-71
2021/12/24 08:40:09;;;;;;;5.00;2.80;;;;;;;;;;5075914;28;20464;-72
2021/12/24 08:42:36;;;;;;;2.37;1.87;;;;;;;;;;5075783;28;20466;-71
2021/12/24 08:45:06;;;;;;;5.50;2.23;;;;;;;;;;5075787;28;20471;-71
2021/12/24 08:47:33;;;;;;;3.80;2.43;;;;;;;;;;5075753;28;20478;-71
2021/12/24 08:50:00;;;;;;;5.10;3.30;;;;;;;;;;5075880;28;20447;-71
2021/12/24 08:52:27;;;;;;;5.17;3.30;;;;;;;;;;5075590;28;20447;-72
2021/12/24 08:54:54;;;;;;;3.37;2.57;;;;;;;;;;5075523;28;20491;-72
2021/12/24 08:57:21;;;;;;;4.30;2.93;;;;;;;;;;5075073;28;20542;-71
2021/12/24 08:59:48;;;;;;;3.90;2.53;;;;;;;;;;5075617;28;20459;-71
2021/12/24 09:02:17;;;;;;;7.00;3.33;;;;;;;;;;5075628;28;20944;-72
2021/12/24 09:04:44;;;;;;;4.03;3.00;;;;;;;;;;5075185;28;20475;-72
2021/12/24 09:07:11;;;;;;;2.00;1.73;;;;;;;;;;5075440;28;20447;-71
2021/12/24 09:09:38;;;;;;;9.43;2.67;;;;;;;;;;5075442;28;20452;-71
2021/12/24 09:12:06;;;;;;;3.53;2.70;;;;;;;;;;5075392;28;20459;-71
2021/12/24 09:14:34;;;;;;;2.93;2.00;;;;;;;;;;5074984;28;20498;-71
2021/12/24 09:17:02;;;;;;;3.20;2.30;;;;;;;;;;5075297;28;20484;-71
2021/12/24 09:19:32;;;;;;;5.40;2.20;;;;;;;;;;5075180;28;20867;-71
2021/12/24 09:21:59;;;;;;;4.80;2.10;;;;;;;;;;5075384;28;20456;-71
2021/12/24 09:24:27;;;;;;;8.93;4.67;;;;;;;;;;5074467;28;20478;-71
2021/12/24 09:26:57;;;;;;;4.43;3.27;;;;;;;;;;5075238;28;20505;-71
2021/12/24 09:29:24;;;;;;;6.73;3.00;;;;;;;;;;5074877;28;20472;-71
2021/12/24 09:31:51;;;;;;;5.87;2.77;;;;;;;;;;5075147;28;20819;-71
2021/12/24 09:34:18;;;;;;;4.30;2.53;;;;;;;;;;5074665;28;20478;-71
2021/12/24 09:36:47;;;;;;;4.20;2.60;;;;;;;;;;5074909;28;20479;-71
2021/12/24 09:39:14;;;;;;;3.80;2.60;;;;;;;;;;5075031;28;20456;-71
2021/12/24 09:41:41;;;;;;;7.43;2.60;;;;;;;;;;5074720;28;20452;-71
2021/12/24 09:44:08;;;;;;;11.07;5.83;;;;;;;;;;5074557;28;20455;-71
2021/12/24 09:46:40;;;;;;;5.33;3.80;;;;;;;;;;5074657;28;20829;-71
2021/12/24 09:49:07;;;;;;;4.77;2.87;;;;;;;;;;5074882;28;20478;-71
2021/12/24 09:51:37;;;;;;;3.80;2.53;;;;;;;;;;5074532;28;20452;-71
2021/12/24 09:54:10;;;;;;;9.80;5.00;;;;;;;;;;5074384;28;20855;-71
2021/12/24 09:56:37;;;;;;;12.97;5.70;;;;;;;;;;5074441;28;20518;-71
2021/12/24 09:59:04;;;;;;;7.27;5.30;;;;;;;;;;5074481;28;20466;-71
2021/12/24 10:01:32;;;;;;;6.63;4.47;;;;;;;;;;5074418;28;20937;-71
2021/12/24 10:04:07;;;;;;;9.57;3.97;;;;;;;;;;5074179;28;20456;-71
2021/12/24 10:06:34;;;;;;;4.90;3.27;;;;;;;;;;5074194;28;20458;-71
2021/12/24 10:09:04;;;;;;;10.33;4.33;;;;;;;;;;5073397;28;20452;-71
2021/12/24 10:11:46;;;;;;;11.90;3.00;;;;;;;;;;5074167;28;20474;-71
2021/12/24 10:14:13;;;;;;;8.60;4.57;;;;;;;;;;5074132;28;20846;-71
2021/12/24 10:16:42;;;;;;;7.27;4.87;;;;;;;;;;5074018;28;20487;-71
2021/12/24 10:19:09;;;;;;;8.40;3.03;;;;;;;;;;5074062;28;20456;-71
2021/12/24 10:21:37;;;;;;;3.57;2.90;;;;;;;;;;5073817;28;20460;-71
2021/12/24 10:24:05;;;;;;;5.50;4.23;;;;;;;;;;5073902;28;20956;-71
2021/12/24 10:26:35;;;;;;;4.97;3.50;;;;;;;;;;5073571;28;20959;-72
2021/12/24 10:29:04;;;;;;;8.47;4.30;;;;;;;;;;5073855;28;20462;-72
2021/12/24 10:31:32;;;;;;;11.60;7.37;;;;;;;;;;5073793;28;20542;-72
2021/12/24 10:34:07;;;;;;;7.03;5.10;;;;;;;;;;5073778;28;20835;-71
2021/12/24 10:36:34;;;;;;;9.30;4.57;;;;;;;;;;5073857;28;20498;-72
2021/12/24 10:39:01;;;;;;;8.17;3.60;;;;;;;;;;5073813;28;20463;-71
2021/12/24 10:41:30;;;;;;;3.53;3.23;;;;;;;;;;5073681;28;20457;-71
2021/12/24 10:44:15;;;;;;;3.30;2.50;;;;;;;;;;5073434;28;20456;-71
2021/12/24 10:46:53;;;;;;;4.90;3.03;;;;;;;;;;5073613;28;20454;-71
2021/12/24 10:49:36;;;;;;;4.27;2.73;;;;;;;;;;5073542;28;20477;-71
2021/12/24 10:52:13;;;;;;;2.90;2.43;;;;;;;;;;5073650;28;20881;-71
2021/12/24 10:54:51;;;;;;;2.90;2.30;;;;;;;;;;5073253;28;20522;-71
2021/12/24 10:57:19;;;;;;;4.47;3.03;;;;;;;;;;5073229;28;20483;-71
2021/12/24 10:59:49;;;;;;;4.33;2.77;;;;;;;;;;5073307;28;20451;-71
2021/12/24 11:02:16;;;;;;;4.50;2.47;;;;;;;;;;5073480;28;20462;-71
2021/12/24 11:04:43;;;;;;;2.50;2.30;;;;;;;;;;5072969;28;20474;-71
2021/12/24 11:07:31;;;;;;;2.50;2.10;;;;;;;;;;5073326;28;20444;-71
2021/12/24 11:10:15;;;;;;;2.63;2.40;;;;;;;;;;5073319;28;20455;-71
2021/12/24 11:12:44;;;;;;;3.97;2.67;;;;;;;;;;5073314;28;20452;-72
2021/12/24 11:15:23;;;;;;;2.73;2.00;;;;;;;;;;5072984;28;20476;-71
2021/12/24 11:17:50;;;;;;;2.90;2.20;;;;;;;;;;5073150;28;20459;-71
2021/12/24 11:20:18;;;;;;;3.53;2.70;;;;;;;;;;5072833;28;20459;-71
2021/12/24 11:22:56;;;;;;;3.93;1.93;;;;;;;;;;5073258;28;20452;-71
2021/12/24 11:25:24;;;;;;;12.77;2.57;;;;;;;;;;5072499;28;20467;-71
2021/12/24 11:27:52;;;;;;;4.50;2.67;;;;;;;;;;5073121;28;20466;-71
2021/12/24 11:30:21;;;;;;;2.90;2.40;;;;;;;;;;5072825;28;20825;-71
2021/12/24 11:32:51;;;;;;;4.23;2.90;;;;;;;;;;5072816;28;20458;-72
2021/12/24 11:35:19;;;;;;;4.37;3.10;;;;;;;;;;5072593;28;20475;-71
2021/12/24 11:37:47;;;;;;;3.70;2.40;;;;;;;;;;5072856;28;20480;-72
2021/12/24 11:40:15;;;;;;;7.20;2.47;;;;;;;;;;5073132;28;20952;-72
2021/12/24 11:42:43;;;;;;;4.00;3.10;;;;;;;;;;5072859;28;20948;-72
2021/12/24 11:45:10;;;;;;;6.17;3.67;;;;;;;;;;5072503;28;20475;-72
2021/12/24 11:47:38;;;;;;;3.50;2.57;;;;;;;;;;5072847;28;20447;-72
2021/12/24 11:50:07;;;;;;;3.07;2.50;;;;;;;;;;5073068;28;20463;-72
2021/12/24 11:52:35;;;;;;;3.00;2.00;;;;;;;;;;5072791;28;20467;-72
2021/12/24 11:55:02;;;;;;;3.17;2.50;;;;;;;;;;5072412;28;20483;-72
2021/12/24 11:57:29;;;;;;;11.53;2.60;;;;;;;;;;5072406;28;20836;-72
2021/12/24 11:59:57;;;;;;;3.57;2.50;;;;;;;;;;5072698;28;21044;-72
2021/12/24 12:02:44;;;;;;;4.40;2.60;;;;;;;;;;5072559;28;20527;-72
2021/12/24 12:05:14;;;;;;;2.80;2.50;;;;;;;;;;5072530;28;20542;-71
2021/12/24 12:07:42;;;;;;;2.80;2.10;;;;;;;;;;5072482;28;20459;-72
2021/12/24 12:10:10;;;;;;;3.23;2.03;;;;;;;;;;5072502;28;20448;-72
2021/12/24 12:12:38;;;;;;;3.27;2.03;;;;;;;;;;5072644;28;20963;-72
2021/12/24 12:15:24;;;;;;;3.23;1.80;;;;;;;;;;5072342;28;20479;-72
2021/12/24 12:17:51;;;;;;;7.80;2.60;;;;;;;;;;5072553;28;20491;-71
2021/12/24 12:20:45;;;;;;;2.73;2.20;;;;;;;;;;5072510;28;20497;-72
2021/12/24 12:23:44;;;;;;;3.53;2.47;;;;;;;;;;5072574;28;20452;-72
2021/12/24 12:26:26;;;;;;;6.13;4.33;;;;;;;;;;5072101;28;20464;-72
2021/12/24 12:29:08;;;;;;;4.20;3.57;;;;;;;;;;5072457;28;20456;-72
2021/12/24 12:31:35;;;;;;;6.17;3.47;;;;;;;;;;5072470;28;20448;-72
2021/12/24 12:34:02;;;;;;;3.50;2.27;;;;;;;;;;5075221;28;20452;-72
2021/12/24 12:36:40;;;;;;;4.07;2.37;;;;;;;;;;5075964;28;20491;-72
2021/12/24 12:39:22;;;;;;;5.30;2.47;;;;;;;;;;5076007;28;20978;-72
2021/12/24 12:41:50;;;;;;;3.60;2.30;;;;;;;;;;5075166;28;20502;-72
2021/12/24 12:44:19;;;;;;;3.17;2.60;;;;;;;;;;5075600;28;20471;-72
2021/12/24 12:46:47;;;;;;;3.93;3.00;;;;;;;;;;5075706;28;20462;-72
2021/12/24 12:49:16;;;;;;;7.53;3.57;;;;;;;;;;5075633;28;20509;-72
2021/12/24 12:51:55;;;;;;;7.13;3.30;;;;;;;;;;5075680;28;20951;-72
2021/12/24 12:54:29;;;;;;;4.70;3.87;;;;;;;;;;5075304;28;20474;-72
2021/12/24 12:57:29;;;;;;;4.43;3.30;;;;;;;;;;5075806;28;20502;-72
2021/12/24 13:00:19;;;;;;;4.43;3.60;;;;;;;;;;5013679;28;20940;-72
2021/12/24 13:03:13;;;;;;;4.87;4.10;;;;;;;;;;5013418;28;20466;-72
2021/12/24 13:06:14;;;;;;;4.37;3.77;;;;;;;;;;5033711;28;20574;-72
2021/12/24 13:08:43;;;;;;;5.33;3.73;;;;;;;;;;5075220;28;20447;-72
2021/12/24 13:11:12;;;;;;;4.17;2.80;;;;;;;;;;5075417;28;20448;-72
2021/12/24 13:13:45;;;;;;;7.23;3.20;;;;;;;;;;5075075;28;20440;-72
2021/12/24 13:16:16;;;;;;;6.10;3.33;;;;;;;;;;5075011;28;20533;-72
2021/12/24 13:18:47;;;;;;;6.40;3.60;;;;;;;;;;5075221;28;20448;-72
2021/12/24 13:24:09;;;;;;;3.87;2.67;;;;;;;;;;5075055;28;20515;-72
2021/12/24 13:26:37;;;;;;;11.93;5.60;;;;;;;;;;5074878;28;20577;-72
2021/12/24 13:29:06;;;;;;;5.10;3.43;;;;;;;;;;5074574;28;20487;-72
2021/12/24 13:31:33;;;;;;;5.00;3.80;;;;;;;;;;5074150;28;20546;-72
2021/12/24 13:34:00;;;;;;;5.90;4.00;;;;;;;;;;5074075;28;20948;-72
2021/12/24 13:36:28;;;;;;;7.50;5.00;;;;;;;;;;5074282;28;20487;-72
2021/12/24 13:39:08;;;;;;;9.50;4.53;;;;;;;;;;5074910;28;20448;-72
2021/12/24 13:41:35;;;;;;;6.30;3.60;;;;;;;;;;5074867;28;20448;-72
2021/12/24 13:44:02;;;;;;;3.97;3.20;;;;;;;;;;5074383;28;20440;-72
2021/12/24 13:46:33;;;;;;;5.93;3.30;;;;;;;;;;5074721;28;20443;-72
2021/12/24 13:49:18;;;;;;;5.33;3.33;;;;;;;;;;5074707;28;20451;-72
2021/12/24 13:54:38;;;;;;;9.23;5.47;;;;;;;;;;5074378;28;20956;-72
2021/12/24 13:57:06;;;;;;;10.53;3.70;;;;;;;;;;5074463;28;20499;-72
2021/12/24 13:59:34;;;;;;;8.13;6.00;;;;;;;;;;5074498;28;20543;-72
2021/12/24 14:02:02;;;;;;;10.20;5.27;;;;;;;;;;5074571;28;20455;-71
2021/12/24 14:04:32;;;;;;;7.23;5.83;;;;;;;;;;5073995;28;20510;-71
2021/12/24 14:07:00;;;;;;;13.30;5.07;;;;;;;;;;5074354;28;20440;-71
2021/12/24 14:09:30;;;;;;;9.93;5.73;;;;;;;;;;5074161;28;20456;-72
2021/12/24 14:11:58;;;;;;;6.67;5.10;;;;;;;;;;5074295;28;20491;-72
2021/12/24 14:14:29;;;;;;;5.60;4.67;;;;;;;;;;5073951;28;20844;-72
2021/12/24 14:17:20;;;;;;;6.53;4.83;;;;;;;;;;5074347;28;20867;-72
2021/12/24 14:20:00;;;;;;;8.87;4.87;;;;;;;;;;5074110;28;20459;-71
2021/12/24 14:22:30;;;;;;;7.03;4.83;;;;;;;;;;5074009;28;20466;-72
2021/12/24 14:25:00;;;;;;;6.97;4.47;;;;;;;;;;5073384;28;20471;-72
2021/12/24 14:27:31;;;;;;;7.70;4.20;;;;;;;;;;5074007;28;20459;-71
2021/12/24 14:29:59;;;;;;;9.10;5.10;;;;;;;;;;5073765;28;20852;-72
2021/12/24 14:32:30;;;;;;;12.63;7.60;;;;;;;;;;5073786;28;20459;-71
2021/12/24 14:34:59;;;;;;;6.00;4.37;;;;;;;;;;5073634;28;20498;-71
2021/12/24 14:37:28;;;;;;;7.60;5.03;;;;;;;;;;5073728;28;20902;-71
2021/12/24 14:39:57;;;;;;;4.57;3.67;;;;;;;;;;5073959;28;20976;-71
2021/12/24 14:42:25;;;;;;;5.30;3.73;;;;;;;;;;5073601;28;20509;-71
2021/12/24 14:44:55;;;;;;;5.87;3.27;;;;;;;;;;5073558;28;20476;-71
2021/12/24 14:47:25;;;;;;;7.00;5.07;;;;;;;;;;5073623;28;20945;-71
2021/12/24 14:49:59;;;;;;;12.30;6.20;;;;;;;;;;5073482;28;20472;-71
2021/12/24 14:52:27;;;;;;;9.67;5.67;;;;;;;;;;5073458;28;20456;-71
2021/12/24 14:55:07;;;;;;;11.77;6.20;;;;;;;;;;5072735;28;20475;-71
2021/12/24 14:57:35;;;;;;;5.13;4.20;;;;;;;;;;5073353;28;20494;-71
2021/12/24 15:00:13;;;;;;;13.23;8.23;;;;;;;;;;5073514;28;20455;-71
2021/12/24 15:02:41;;;;;;;19.73;7.63;;;;;;;;;;5073495;28;20444;-71
2021/12/24 15:05:08;;;;;;;9.60;5.80;;;;;;;;;;5073115;28;20468;-71
2021/12/24 15:07:35;;;;;;;11.20;6.63;;;;;;;;;;5073322;28;20444;-71
2021/12/24 15:10:10;;;;;;;11.40;5.50;;;;;;;;;;5073447;28;20460;-71
2021/12/24 15:12:42;;;;;;;7.93;5.27;;;;;;;;;;5073359;28;20473;-71
2021/12/24 15:15:09;;;;;;;6.07;4.67;;;;;;;;;;5072997;28;20506;-71
2021/12/24 15:17:41;;;;;;;6.23;4.53;;;;;;;;;;5073178;28;20491;-71
2021/12/24 15:20:09;;;;;;;6.20;4.87;;;;;;;;;;5073183;28;20447;-71
2021/12/24 15:22:36;;;;;;;7.07;5.80;;;;;;;;;;5073003;28;20447;-71
2021/12/24 15:25:04;;;;;;;9.80;4.70;;;;;;;;;;5072368;28;20490;-71
2021/12/24 15:27:36;;;;;;;6.13;5.10;;;;;;;;;;5073073;28;20816;-71
2021/12/24 15:30:04;;;;;;;9.90;5.40;;;;;;;;;;5072985;28;20495;-71
2021/12/24 15:32:32;;;;;;;12.07;6.13;;;;;;;;;;5073176;28;20456;-71
2021/12/24 15:35:00;;;;;;;10.07;5.10;;;;;;;;;;5072069;28;20476;-71
2021/12/24 15:37:27;;;;;;;6.70;5.37;;;;;;;;;;5072760;28;20487;-71
2021/12/24 15:39:54;;;;;;;7.27;5.20;;;;;;;;;;5072973;28;20812;-71
2021/12/24 15:42:24;;;;;;;9.03;6.40;;;;;;;;;;5072800;28;20448;-71
2021/12/24 15:44:51;;;;;;;10.00;7.73;;;;;;;;;;5072637;28;20840;-71
2021/12/24 15:47:19;;;;;;;12.73;9.37;;;;;;;;;;5072972;28;20444;-71
2021/12/24 15:49:46;;;;;;;10.23;7.07;;;;;;;;;;5072847;28;20471;-71
2021/12/24 15:52:14;;;;;;;10.67;7.80;;;;;;;;;;5072972;28;20916;-71
2021/12/24 15:54:41;;;;;;;21.37;14.77;;;;;;;;;;5072465;28;20472;-71
2021/12/24 15:57:08;;;;;;;32.53;20.57;;;;;;;;;;5072682;28;20483;-71
2021/12/24 15:59:36;;;;;;;13.70;9.30;;;;;;;;;;5072839;28;20448;-71
2021/12/24 16:02:04;;;;;;;11.10;8.87;;;;;;;;;;5072901;28;20487;-71
2021/12/24 16:04:33;;;;;;;6.80;5.73;;;;;;;;;;5072350;28;20471;-71
2021/12/24 16:07:00;;;;;;;5.50;4.70;;;;;;;;;;5074232;28;20491;-71
2021/12/24 16:09:29;;;;;;;11.40;6.83;;;;;;;;;;5076617;28;20951;-71
2021/12/24 16:11:56;;;;;;;3.50;3.07;;;;;;;;;;5076693;28;20462;-71
2021/12/24 16:14:23;;;;;;;3.40;3.00;;;;;;;;;;5076280;28;20482;-71
2021/12/24 16:16:51;;;;;;;4.10;2.97;;;;;;;;;;5076610;28;20461;-71
2021/12/24 16:19:19;;;;;;;3.70;2.53;;;;;;;;;;5076647;28;20535;-71